sensor_id;sensor_type;location;lat;lon;timestamp;P1;durP1;ratioP1;P2;durP2;ratioP2
21729;SDS011;11027;51.030;13.812;2023-09-18T00:00:16;3.72;;;2.95;;
21729;SDS011;11027;51.030;13.812;2023-09-18T00:02:41;2.97;;;2.67;;
21729;SDS011;11027;51.030;13.812;2023-09-18T00:05:07;7.15;;;3.05;;
21729;SDS011;11027;51.030;13.812;2023-09-18T00:07:32;3.10;;;2.85;;
21729;SDS011;11027;51.030;13.812;2023-09-18T00:09:57;3.35;;;3.05;;
21729;SDS011;11027;51.030;13.812;2023-09-18T00:12:23;5.45;;;3.28;;
21729;SDS011;11027;51.030;13.812;2023-09-18T00:14:48;3.30;;;3.00;;
21729;SDS011;11027;51.030;13.812;2023-09-18T00:17:14;6.88;;;2.90;;
21729;SDS011;11027;51.030;13.812;2023-09-18T00:19:40;7.07;;;2.80;;
21729;SDS011;11027;51.030;13.812;2023-09-18T00:22:05;4.72;;;2.88;;
21729;SDS011;11027;51.030;13.812;2023-09-18T00:24:31;4.38;;;3.40;;
21729;SDS011;11027;51.030;13.812;2023-09-18T00:26:56;3.10;;;2.80;;
21729;SDS011;11027;51.030;13.812;2023-09-18T00:29:22;5.90;;;3.17;;
21729;SDS011;11027;51.030;13.812;2023-09-18T00:31:47;3.28;;;2.83;;
21729;SDS011;11027;51.030;13.812;2023-09-18T00:34:12;3.58;;;2.92;;
21729;SDS011;11027;51.030;13.812;2023-09-18T00:36:38;5.97;;;3.00;;
21729;SDS011;11027;51.030;13.812;2023-09-18T00:39:03;8.73;;;3.33;;
21729;SDS011;11027;51.030;13.812;2023-09-18T00:41:29;4.95;;;3.15;;
21729;SDS011;11027;51.030;13.812;2023-09-18T00:43:54;3.65;;;2.90;;
21729;SDS011;11027;51.030;13.812;2023-09-18T00:46:19;7.07;;;2.92;;
21729;SDS011;11027;51.030;13.812;2023-09-18T00:48:45;5.28;;;3.13;;
21729;SDS011;11027;51.030;13.812;2023-09-18T00:51:11;4.85;;;3.20;;
21729;SDS011;11027;51.030;13.812;2023-09-18T00:53:38;6.53;;;3.25;;
21729;SDS011;11027;51.030;13.812;2023-09-18T00:56:04;3.20;;;2.90;;
21729;SDS011;11027;51.030;13.812;2023-09-18T00:58:29;3.97;;;3.65;;
21729;SDS011;11027;51.030;13.812;2023-09-18T01:00:55;4.35;;;3.10;;
21729;SDS011;11027;51.030;13.812;2023-09-18T01:03:20;3.63;;;3.05;;
21729;SDS011;11027;51.030;13.812;2023-09-18T01:05:47;5.75;;;3.30;;
21729;SDS011;11027;51.030;13.812;2023-09-18T01:08:12;4.05;;;2.95;;
21729;SDS011;11027;51.030;13.812;2023-09-18T01:10:40;4.30;;;3.10;;
21729;SDS011;11027;51.030;13.812;2023-09-18T01:13:38;3.60;;;3.30;;
21729;SDS011;11027;51.030;13.812;2023-09-18T01:16:11;3.97;;;3.08;;
21729;SDS011;11027;51.030;13.812;2023-09-18T01:18:49;7.10;;;3.17;;
21729;SDS011;11027;51.030;13.812;2023-09-18T01:21:15;5.45;;;3.40;;
21729;SDS011;11027;51.030;13.812;2023-09-18T01:23:40;4.90;;;3.50;;
21729;SDS011;11027;51.030;13.812;2023-09-18T01:26:05;4.30;;;3.03;;
21729;SDS011;11027;51.030;13.812;2023-09-18T01:28:31;4.57;;;3.15;;
21729;SDS011;11027;51.030;13.812;2023-09-18T01:30:56;4.97;;;3.40;;
21729;SDS011;11027;51.030;13.812;2023-09-18T01:33:21;3.60;;;3.30;;
21729;SDS011;11027;51.030;13.812;2023-09-18T01:35:48;5.57;;;3.40;;
21729;SDS011;11027;51.030;13.812;2023-09-18T01:38:15;5.57;;;3.10;;
21729;SDS011;11027;51.030;13.812;2023-09-18T01:40:40;6.82;;;3.30;;
21729;SDS011;11027;51.030;13.812;2023-09-18T01:43:06;4.72;;;3.30;;
21729;SDS011;11027;51.030;13.812;2023-09-18T01:45:31;3.75;;;3.00;;
21729;SDS011;11027;51.030;13.812;2023-09-18T01:47:57;3.63;;;3.33;;
21729;SDS011;11027;51.030;13.812;2023-09-18T01:50:23;4.05;;;3.25;;
21729;SDS011;11027;51.030;13.812;2023-09-18T01:52:48;3.88;;;3.30;;
21729;SDS011;11027;51.030;13.812;2023-09-18T01:55:13;4.90;;;3.08;;
21729;SDS011;11027;51.030;13.812;2023-09-18T01:57:39;3.83;;;3.22;;
21729;SDS011;11027;51.030;13.812;2023-09-18T02:00:04;4.18;;;3.75;;
21729;SDS011;11027;51.030;13.812;2023-09-18T02:02:33;3.90;;;3.40;;
21729;SDS011;11027;51.030;13.812;2023-09-18T02:05:00;3.85;;;3.42;;
21729;SDS011;11027;51.030;13.812;2023-09-18T02:07:25;4.55;;;3.30;;
21729;SDS011;11027;51.030;13.812;2023-09-18T02:09:51;5.47;;;3.78;;
21729;SDS011;11027;51.030;13.812;2023-09-18T02:12:16;7.75;;;3.72;;
21729;SDS011;11027;51.030;13.812;2023-09-18T02:14:43;3.67;;;3.38;;
21729;SDS011;11027;51.030;13.812;2023-09-18T02:17:09;3.65;;;3.35;;
21729;SDS011;11027;51.030;13.812;2023-09-18T02:19:35;4.43;;;3.42;;
21729;SDS011;11027;51.030;13.812;2023-09-18T02:22:00;4.05;;;3.75;;
21729;SDS011;11027;51.030;13.812;2023-09-18T02:24:25;3.95;;;3.60;;
21729;SDS011;11027;51.030;13.812;2023-09-18T02:26:51;6.75;;;3.80;;
21729;SDS011;11027;51.030;13.812;2023-09-18T02:29:16;4.50;;;3.53;;
21729;SDS011;11027;51.030;13.812;2023-09-18T02:31:41;5.93;;;3.90;;
21729;SDS011;11027;51.030;13.812;2023-09-18T02:34:06;11.65;;;3.60;;
21729;SDS011;11027;51.030;13.812;2023-09-18T02:36:32;8.43;;;3.63;;
21729;SDS011;11027;51.030;13.812;2023-09-18T02:38:58;4.50;;;3.63;;
21729;SDS011;11027;51.030;13.812;2023-09-18T02:41:23;6.97;;;3.58;;
21729;SDS011;11027;51.030;13.812;2023-09-18T02:43:48;5.07;;;3.83;;
21729;SDS011;11027;51.030;13.812;2023-09-18T02:46:14;7.13;;;3.53;;
21729;SDS011;11027;51.030;13.812;2023-09-18T02:48:39;3.78;;;3.20;;
21729;SDS011;11027;51.030;13.812;2023-09-18T02:51:05;4.35;;;3.72;;
21729;SDS011;11027;51.030;13.812;2023-09-18T02:53:30;3.88;;;3.47;;
21729;SDS011;11027;51.030;13.812;2023-09-18T02:55:56;3.72;;;3.42;;
21729;SDS011;11027;51.030;13.812;2023-09-18T02:58:23;4.75;;;3.38;;
21729;SDS011;11027;51.030;13.812;2023-09-18T03:00:51;3.72;;;3.40;;
21729;SDS011;11027;51.030;13.812;2023-09-18T03:03:18;4.05;;;3.65;;
21729;SDS011;11027;51.030;13.812;2023-09-18T03:05:44;7.32;;;3.58;;
21729;SDS011;11027;51.030;13.812;2023-09-18T03:08:10;5.00;;;3.30;;
21729;SDS011;11027;51.030;13.812;2023-09-18T03:10:37;4.07;;;3.53;;
21729;SDS011;11027;51.030;13.812;2023-09-18T03:13:04;4.00;;;3.67;;
21729;SDS011;11027;51.030;13.812;2023-09-18T03:15:30;4.50;;;3.63;;
21729;SDS011;11027;51.030;13.812;2023-09-18T03:17:59;3.65;;;3.35;;
21729;SDS011;11027;51.030;13.812;2023-09-18T03:20:26;4.22;;;3.53;;
21729;SDS011;11027;51.030;13.812;2023-09-18T03:22:52;5.85;;;3.72;;
21729;SDS011;11027;51.030;13.812;2023-09-18T03:25:19;7.25;;;3.63;;
21729;SDS011;11027;51.030;13.812;2023-09-18T03:27:44;4.10;;;3.80;;
21729;SDS011;11027;51.030;13.812;2023-09-18T03:30:09;4.03;;;3.72;;
21729;SDS011;11027;51.030;13.812;2023-09-18T03:32:37;7.85;;;3.83;;
21729;SDS011;11027;51.030;13.812;2023-09-18T03:35:03;4.15;;;3.70;;
21729;SDS011;11027;51.030;13.812;2023-09-18T03:37:29;7.13;;;4.20;;
21729;SDS011;11027;51.030;13.812;2023-09-18T03:39:54;5.95;;;4.25;;
21729;SDS011;11027;51.030;13.812;2023-09-18T03:42:19;7.10;;;3.92;;
21729;SDS011;11027;51.030;13.812;2023-09-18T03:44:44;5.10;;;4.55;;
21729;SDS011;11027;51.030;13.812;2023-09-18T03:47:10;5.30;;;3.97;;
21729;SDS011;11027;51.030;13.812;2023-09-18T03:49:35;4.63;;;3.80;;
21729;SDS011;11027;51.030;13.812;2023-09-18T03:52:00;4.57;;;4.00;;
21729;SDS011;11027;51.030;13.812;2023-09-18T03:54:25;5.03;;;3.40;;
21729;SDS011;11027;51.030;13.812;2023-09-18T03:56:50;3.90;;;3.60;;
21729;SDS011;11027;51.030;13.812;2023-09-18T03:59:16;4.63;;;3.97;;
21729;SDS011;11027;51.030;13.812;2023-09-18T04:01:41;4.45;;;3.90;;
21729;SDS011;11027;51.030;13.812;2023-09-18T04:04:06;7.43;;;3.80;;
21729;SDS011;11027;51.030;13.812;2023-09-18T04:06:41;6.28;;;4.15;;
21729;SDS011;11027;51.030;13.812;2023-09-18T04:09:08;4.18;;;3.78;;
21729;SDS011;11027;51.030;13.812;2023-09-18T04:11:33;4.32;;;3.92;;
21729;SDS011;11027;51.030;13.812;2023-09-18T04:14:00;6.70;;;4.05;;
21729;SDS011;11027;51.030;13.812;2023-09-18T04:16:26;5.57;;;3.67;;
21729;SDS011;11027;51.030;13.812;2023-09-18T04:18:52;7.60;;;4.00;;
21729;SDS011;11027;51.030;13.812;2023-09-18T04:21:18;4.10;;;3.70;;
21729;SDS011;11027;51.030;13.812;2023-09-18T04:23:43;4.35;;;3.95;;
21729;SDS011;11027;51.030;13.812;2023-09-18T04:26:09;7.35;;;4.55;;
21729;SDS011;11027;51.030;13.812;2023-09-18T04:28:35;6.20;;;4.07;;
21729;SDS011;11027;51.030;13.812;2023-09-18T04:31:00;6.90;;;3.90;;
21729;SDS011;11027;51.030;13.812;2023-09-18T04:33:25;4.68;;;4.20;;
21729;SDS011;11027;51.030;13.812;2023-09-18T04:35:50;5.43;;;4.40;;
21729;SDS011;11027;51.030;13.812;2023-09-18T04:38:16;4.10;;;3.63;;
21729;SDS011;11027;51.030;13.812;2023-09-18T04:40:41;4.30;;;3.90;;
21729;SDS011;11027;51.030;13.812;2023-09-18T04:43:07;4.55;;;4.15;;
21729;SDS011;11027;51.030;13.812;2023-09-18T04:45:32;6.25;;;3.97;;
21729;SDS011;11027;51.030;13.812;2023-09-18T04:47:58;5.20;;;4.40;;
21729;SDS011;11027;51.030;13.812;2023-09-18T04:50:23;9.20;;;4.63;;
21729;SDS011;11027;51.030;13.812;2023-09-18T04:52:48;7.82;;;4.60;;
21729;SDS011;11027;51.030;13.812;2023-09-18T04:55:15;7.78;;;4.10;;
21729;SDS011;11027;51.030;13.812;2023-09-18T04:57:41;4.82;;;4.32;;
21729;SDS011;11027;51.030;13.812;2023-09-18T05:00:06;5.18;;;4.53;;
21729;SDS011;11027;51.030;13.812;2023-09-18T05:02:38;5.88;;;4.65;;
21729;SDS011;11027;51.030;13.812;2023-09-18T05:05:04;6.25;;;4.28;;
21729;SDS011;11027;51.030;13.812;2023-09-18T05:07:29;4.50;;;4.03;;
21729;SDS011;11027;51.030;13.812;2023-09-18T05:09:55;4.50;;;4.10;;
21729;SDS011;11027;51.030;13.812;2023-09-18T05:12:20;4.72;;;4.32;;
21729;SDS011;11027;51.030;13.812;2023-09-18T05:14:47;4.80;;;4.40;;
21729;SDS011;11027;51.030;13.812;2023-09-18T05:17:16;4.93;;;4.25;;
21729;SDS011;11027;51.030;13.812;2023-09-18T05:19:42;5.85;;;4.32;;
21729;SDS011;11027;51.030;13.812;2023-09-18T05:22:10;5.00;;;4.50;;
21729;SDS011;11027;51.030;13.812;2023-09-18T05:24:37;5.18;;;4.38;;
21729;SDS011;11027;51.030;13.812;2023-09-18T05:27:05;7.45;;;4.00;;
21729;SDS011;11027;51.030;13.812;2023-09-18T05:29:32;4.82;;;4.22;;
21729;SDS011;11027;51.030;13.812;2023-09-18T05:31:57;5.00;;;4.50;;
21729;SDS011;11027;51.030;13.812;2023-09-18T05:34:22;5.20;;;4.70;;
21729;SDS011;11027;51.030;13.812;2023-09-18T05:36:48;4.97;;;4.05;;
21729;SDS011;11027;51.030;13.812;2023-09-18T05:39:13;4.93;;;4.20;;
21729;SDS011;11027;51.030;13.812;2023-09-18T05:41:39;5.22;;;4.10;;
21729;SDS011;11027;51.030;13.812;2023-09-18T05:44:04;10.45;;;4.18;;
21729;SDS011;11027;51.030;13.812;2023-09-18T05:46:33;5.65;;;4.43;;
21729;SDS011;11027;51.030;13.812;2023-09-18T05:48:59;4.60;;;4.20;;
21729;SDS011;11027;51.030;13.812;2023-09-18T05:51:25;6.10;;;4.50;;
21729;SDS011;11027;51.030;13.812;2023-09-18T05:53:51;4.75;;;4.35;;
21729;SDS011;11027;51.030;13.812;2023-09-18T05:56:16;5.15;;;4.60;;
21729;SDS011;11027;51.030;13.812;2023-09-18T05:58:42;6.82;;;4.18;;
21729;SDS011;11027;51.030;13.812;2023-09-18T06:01:08;4.97;;;4.47;;
21729;SDS011;11027;51.030;13.812;2023-09-18T06:03:34;9.45;;;4.78;;
21729;SDS011;11027;51.030;13.812;2023-09-18T06:06:03;5.05;;;4.50;;
21729;SDS011;11027;51.030;13.812;2023-09-18T06:08:29;5.32;;;4.80;;
21729;SDS011;11027;51.030;13.812;2023-09-18T06:10:55;5.35;;;4.75;;
21729;SDS011;11027;51.030;13.812;2023-09-18T06:13:21;5.20;;;4.28;;
21729;SDS011;11027;51.030;13.812;2023-09-18T06:15:47;5.32;;;4.45;;
21729;SDS011;11027;51.030;13.812;2023-09-18T06:18:12;5.63;;;4.80;;
21729;SDS011;11027;51.030;13.812;2023-09-18T06:20:38;5.10;;;4.60;;
21729;SDS011;11027;51.030;13.812;2023-09-18T06:23:04;5.10;;;4.60;;
21729;SDS011;11027;51.030;13.812;2023-09-18T06:25:29;5.50;;;4.93;;
21729;SDS011;11027;51.030;13.812;2023-09-18T06:27:56;13.65;;;4.70;;
21729;SDS011;11027;51.030;13.812;2023-09-18T06:30:21;5.88;;;4.22;;
21729;SDS011;11027;51.030;13.812;2023-09-18T06:32:46;4.88;;;4.47;;
21729;SDS011;11027;51.030;13.812;2023-09-18T06:35:12;4.80;;;4.30;;
21729;SDS011;11027;51.030;13.812;2023-09-18T06:37:37;5.57;;;4.50;;
21729;SDS011;11027;51.030;13.812;2023-09-18T06:40:03;5.13;;;4.60;;
21729;SDS011;11027;51.030;13.812;2023-09-18T06:42:29;9.30;;;5.05;;
21729;SDS011;11027;51.030;13.812;2023-09-18T06:44:54;6.97;;;4.93;;
21729;SDS011;11027;51.030;13.812;2023-09-18T06:47:20;6.75;;;5.25;;
21729;SDS011;11027;51.030;13.812;2023-09-18T06:49:46;5.53;;;4.45;;
21729;SDS011;11027;51.030;13.812;2023-09-18T06:52:12;6.60;;;5.30;;
21729;SDS011;11027;51.030;13.812;2023-09-18T06:54:38;5.93;;;4.50;;
21729;SDS011;11027;51.030;13.812;2023-09-18T06:57:03;7.82;;;4.70;;
21729;SDS011;11027;51.030;13.812;2023-09-18T06:59:28;6.93;;;4.85;;
21729;SDS011;11027;51.030;13.812;2023-09-18T07:01:54;6.93;;;4.80;;
21729;SDS011;11027;51.030;13.812;2023-09-18T07:04:20;6.95;;;4.70;;
21729;SDS011;11027;51.030;13.812;2023-09-18T07:06:46;9.90;;;4.78;;
21729;SDS011;11027;51.030;13.812;2023-09-18T07:09:11;7.28;;;4.60;;
21729;SDS011;11027;51.030;13.812;2023-09-18T07:11:37;7.45;;;4.53;;
21729;SDS011;11027;51.030;13.812;2023-09-18T07:14:03;6.50;;;4.85;;
21729;SDS011;11027;51.030;13.812;2023-09-18T07:16:31;5.85;;;4.60;;
21729;SDS011;11027;51.030;13.812;2023-09-18T07:18:57;6.55;;;4.78;;
21729;SDS011;11027;51.030;13.812;2023-09-18T07:21:22;5.20;;;4.80;;
21729;SDS011;11027;51.030;13.812;2023-09-18T07:23:47;4.78;;;4.32;;
21729;SDS011;11027;51.030;13.812;2023-09-18T07:26:13;8.75;;;5.13;;
21729;SDS011;11027;51.030;13.812;2023-09-18T07:28:38;6.22;;;4.25;;
21729;SDS011;11027;51.030;13.812;2023-09-18T07:31:07;5.13;;;4.63;;
21729;SDS011;11027;51.030;13.812;2023-09-18T07:33:33;7.40;;;4.93;;
21729;SDS011;11027;51.030;13.812;2023-09-18T07:35:59;5.95;;;4.70;;
21729;SDS011;11027;51.030;13.812;2023-09-18T07:38:25;4.65;;;4.20;;
21729;SDS011;11027;51.030;13.812;2023-09-18T07:40:51;6.80;;;4.75;;
21729;SDS011;11027;51.030;13.812;2023-09-18T07:43:16;6.45;;;4.28;;
21729;SDS011;11027;51.030;13.812;2023-09-18T07:45:41;7.88;;;4.43;;
21729;SDS011;11027;51.030;13.812;2023-09-18T07:48:07;4.95;;;4.45;;
21729;SDS011;11027;51.030;13.812;2023-09-18T07:50:33;5.57;;;4.10;;
21729;SDS011;11027;51.030;13.812;2023-09-18T07:52:59;5.35;;;4.53;;
21729;SDS011;11027;51.030;13.812;2023-09-18T07:55:25;5.85;;;4.30;;
21729;SDS011;11027;51.030;13.812;2023-09-18T07:57:51;5.00;;;4.60;;
21729;SDS011;11027;51.030;13.812;2023-09-18T08:00:16;5.30;;;4.80;;
21729;SDS011;11027;51.030;13.812;2023-09-18T08:02:43;5.90;;;4.45;;
21729;SDS011;11027;51.030;13.812;2023-09-18T08:05:08;7.15;;;4.25;;
21729;SDS011;11027;51.030;13.812;2023-09-18T08:07:34;9.65;;;4.68;;
21729;SDS011;11027;51.030;13.812;2023-09-18T08:10:02;6.50;;;4.90;;
21729;SDS011;11027;51.030;13.812;2023-09-18T08:12:31;5.80;;;4.30;;
21729;SDS011;11027;51.030;13.812;2023-09-18T08:14:56;8.00;;;4.15;;
21729;SDS011;11027;51.030;13.812;2023-09-18T08:17:23;4.75;;;3.92;;
21729;SDS011;11027;51.030;13.812;2023-09-18T08:19:50;5.10;;;4.07;;
21729;SDS011;11027;51.030;13.812;2023-09-18T08:22:17;4.45;;;3.90;;
21729;SDS011;11027;51.030;13.812;2023-09-18T08:24:44;9.25;;;3.60;;
21729;SDS011;11027;51.030;13.812;2023-09-18T08:27:10;4.32;;;3.78;;
21729;SDS011;11027;51.030;13.812;2023-09-18T08:29:36;7.35;;;3.67;;
21729;SDS011;11027;51.030;13.812;2023-09-18T08:32:01;5.10;;;3.65;;
21729;SDS011;11027;51.030;13.812;2023-09-18T08:34:27;8.77;;;4.15;;
21729;SDS011;11027;51.030;13.812;2023-09-18T08:36:52;7.80;;;3.50;;
21729;SDS011;11027;51.030;13.812;2023-09-18T08:39:17;8.30;;;3.78;;
21729;SDS011;11027;51.030;13.812;2023-09-18T08:41:42;5.85;;;3.65;;
21729;SDS011;11027;51.030;13.812;2023-09-18T08:44:10;5.05;;;3.72;;
21729;SDS011;11027;51.030;13.812;2023-09-18T08:46:38;3.75;;;3.13;;
21729;SDS011;11027;51.030;13.812;2023-09-18T08:49:04;5.32;;;3.60;;
21729;SDS011;11027;51.030;13.812;2023-09-18T08:51:30;7.57;;;3.33;;
21729;SDS011;11027;51.030;13.812;2023-09-18T08:53:57;9.70;;;3.50;;
21729;SDS011;11027;51.030;13.812;2023-09-18T08:56:23;4.95;;;3.30;;
21729;SDS011;11027;51.030;13.812;2023-09-18T08:58:48;7.63;;;3.42;;
21729;SDS011;11027;51.030;13.812;2023-09-18T09:01:14;4.70;;;3.55;;
21729;SDS011;11027;51.030;13.812;2023-09-18T09:03:39;6.03;;;3.30;;
21729;SDS011;11027;51.030;13.812;2023-09-18T09:06:07;5.50;;;3.08;;
21729;SDS011;11027;51.030;13.812;2023-09-18T09:08:33;4.25;;;3.33;;
21729;SDS011;11027;51.030;13.812;2023-09-18T09:10:59;4.90;;;3.03;;
21729;SDS011;11027;51.030;13.812;2023-09-18T09:13:25;4.60;;;3.30;;
21729;SDS011;11027;51.030;13.812;2023-09-18T09:15:54;4.55;;;3.40;;
21729;SDS011;11027;51.030;13.812;2023-09-18T09:18:22;5.53;;;3.20;;
21729;SDS011;11027;51.030;13.812;2023-09-18T09:23:28;5.90;;;2.90;;
21729;SDS011;11027;51.030;13.812;2023-09-18T09:28:50;6.38;;;3.05;;
21729;SDS011;11027;51.030;13.812;2023-09-18T09:31:25;6.40;;;2.90;;
21729;SDS011;11027;51.030;13.812;2023-09-18T09:33:55;7.35;;;2.83;;
21729;SDS011;11027;51.030;13.812;2023-09-18T09:36:21;6.15;;;2.85;;
21729;SDS011;11027;51.030;13.812;2023-09-18T09:38:47;3.53;;;2.67;;
21729;SDS011;11027;51.030;13.812;2023-09-18T09:41:15;5.88;;;2.72;;
21729;SDS011;11027;51.030;13.812;2023-09-18T09:43:42;5.97;;;2.78;;
21729;SDS011;11027;51.030;13.812;2023-09-18T09:46:14;3.88;;;2.50;;
21729;SDS011;11027;51.030;13.812;2023-09-18T09:49:05;4.07;;;2.78;;
21729;SDS011;11027;51.030;13.812;2023-09-18T09:51:31;5.60;;;2.53;;
21729;SDS011;11027;51.030;13.812;2023-09-18T09:53:58;4.03;;;2.78;;
21729;SDS011;11027;51.030;13.812;2023-09-18T09:59:15;3.20;;;2.55;;
21729;SDS011;11027;51.030;13.812;2023-09-18T10:01:42;3.33;;;3.08;;
21729;SDS011;11027;51.030;13.812;2023-09-18T10:04:15;5.10;;;3.33;;
21729;SDS011;11027;51.030;13.812;2023-09-18T10:06:47;3.17;;;2.88;;
21729;SDS011;11027;51.030;13.812;2023-09-18T10:09:16;6.45;;;2.90;;
21729;SDS011;11027;51.030;13.812;2023-09-18T10:11:44;3.10;;;2.78;;
21729;SDS011;11027;51.030;13.812;2023-09-18T10:14:17;5.75;;;2.78;;
21729;SDS011;11027;51.030;13.812;2023-09-18T10:19:49;4.97;;;2.70;;
21729;SDS011;11027;51.030;13.812;2023-09-18T10:24:47;5.10;;;3.08;;
21729;SDS011;11027;51.030;13.812;2023-09-18T10:27:15;9.15;;;3.15;;
21729;SDS011;11027;51.030;13.812;2023-09-18T10:29:43;4.50;;;2.83;;
21729;SDS011;11027;51.030;13.812;2023-09-18T10:32:14;9.65;;;3.10;;
21729;SDS011;11027;51.030;13.812;2023-09-18T10:34:40;4.13;;;2.72;;
21729;SDS011;11027;51.030;13.812;2023-09-18T10:37:08;4.88;;;2.72;;
21729;SDS011;11027;51.030;13.812;2023-09-18T10:39:37;11.18;;;2.97;;
21729;SDS011;11027;51.030;13.812;2023-09-18T10:42:04;6.00;;;2.72;;
21729;SDS011;11027;51.030;13.812;2023-09-18T10:44:32;7.22;;;3.00;;
21729;SDS011;11027;51.030;13.812;2023-09-18T10:46:58;3.05;;;2.63;;
21729;SDS011;11027;51.030;13.812;2023-09-18T10:49:25;7.05;;;3.13;;
21729;SDS011;11027;51.030;13.812;2023-09-18T10:51:54;5.55;;;2.90;;
21729;SDS011;11027;51.030;13.812;2023-09-18T10:54:22;4.07;;;2.95;;
21729;SDS011;11027;51.030;13.812;2023-09-18T10:56:48;6.68;;;2.67;;
21729;SDS011;11027;51.030;13.812;2023-09-18T10:59:15;5.18;;;2.88;;
21729;SDS011;11027;51.030;13.812;2023-09-18T11:01:41;3.10;;;2.47;;
21729;SDS011;11027;51.030;13.812;2023-09-18T11:04:07;5.93;;;2.80;;
21729;SDS011;11027;51.030;13.812;2023-09-18T11:09:22;2.78;;;2.58;;
21729;SDS011;11027;51.030;13.812;2023-09-18T11:11:52;6.43;;;3.10;;
21729;SDS011;11027;51.030;13.812;2023-09-18T11:14:22;4.38;;;2.85;;
21729;SDS011;11027;51.030;13.812;2023-09-18T11:16:47;6.30;;;2.92;;
21729;SDS011;11027;51.030;13.812;2023-09-18T11:19:17;4.22;;;3.33;;
21729;SDS011;11027;51.030;13.812;2023-09-18T11:21:44;7.10;;;3.40;;
21729;SDS011;11027;51.030;13.812;2023-09-18T11:24:17;6.00;;;3.15;;
21729;SDS011;11027;51.030;13.812;2023-09-18T11:26:48;5.60;;;3.28;;
21729;SDS011;11027;51.030;13.812;2023-09-18T11:29:16;3.40;;;2.88;;
21729;SDS011;11027;51.030;13.812;2023-09-18T11:31:47;4.63;;;3.17;;
21729;SDS011;11027;51.030;13.812;2023-09-18T11:34:22;8.18;;;3.38;;
21729;SDS011;11027;51.030;13.812;2023-09-18T11:36:49;9.35;;;3.65;;
21729;SDS011;11027;51.030;13.812;2023-09-18T11:42:11;3.92;;;3.15;;
21729;SDS011;11027;51.030;13.812;2023-09-18T11:44:38;6.25;;;3.40;;
21729;SDS011;11027;51.030;13.812;2023-09-18T11:47:11;11.00;;;3.50;;
21729;SDS011;11027;51.030;13.812;2023-09-18T11:49:53;6.55;;;3.10;;
21729;SDS011;11027;51.030;13.812;2023-09-18T11:52:22;5.28;;;3.03;;
21729;SDS011;11027;51.030;13.812;2023-09-18T11:54:48;4.95;;;3.30;;
21729;SDS011;11027;51.030;13.812;2023-09-18T11:57:14;3.85;;;3.45;;
21729;SDS011;11027;51.030;13.812;2023-09-18T11:59:41;5.10;;;3.47;;
21729;SDS011;11027;51.030;13.812;2023-09-18T12:02:08;3.45;;;3.15;;
21729;SDS011;11027;51.030;13.812;2023-09-18T12:04:35;3.47;;;3.17;;
21729;SDS011;11027;51.030;13.812;2023-09-18T12:07:00;8.90;;;3.40;;
21729;SDS011;11027;51.030;13.812;2023-09-18T12:09:28;7.15;;;3.50;;
21729;SDS011;11027;51.030;13.812;2023-09-18T12:11:57;7.03;;;3.28;;
21729;SDS011;11027;51.030;13.812;2023-09-18T12:14:29;11.32;;;3.75;;
21729;SDS011;11027;51.030;13.812;2023-09-18T12:16:55;3.92;;;3.63;;
21729;SDS011;11027;51.030;13.812;2023-09-18T12:19:22;7.43;;;3.63;;
21729;SDS011;11027;51.030;13.812;2023-09-18T12:21:48;5.63;;;3.45;;
21729;SDS011;11027;51.030;13.812;2023-09-18T12:24:14;9.15;;;3.47;;
21729;SDS011;11027;51.030;13.812;2023-09-18T12:26:53;5.68;;;3.35;;
21729;SDS011;11027;51.030;13.812;2023-09-18T12:29:22;5.22;;;2.85;;
21729;SDS011;11027;51.030;13.812;2023-09-18T12:31:48;5.68;;;3.72;;
21729;SDS011;11027;51.030;13.812;2023-09-18T12:34:16;5.93;;;3.40;;
21729;SDS011;11027;51.030;13.812;2023-09-18T12:36:43;5.18;;;3.40;;
21729;SDS011;11027;51.030;13.812;2023-09-18T12:39:09;6.50;;;4.00;;
21729;SDS011;11027;51.030;13.812;2023-09-18T12:41:35;6.28;;;3.35;;
21729;SDS011;11027;51.030;13.812;2023-09-18T12:44:02;5.28;;;3.30;;
21729;SDS011;11027;51.030;13.812;2023-09-18T12:46:30;6.28;;;3.65;;
21729;SDS011;11027;51.030;13.812;2023-09-18T12:48:56;7.13;;;2.95;;
21729;SDS011;11027;51.030;13.812;2023-09-18T12:51:28;10.82;;;3.20;;
21729;SDS011;11027;51.030;13.812;2023-09-18T12:54:00;7.32;;;3.53;;
21729;SDS011;11027;51.030;13.812;2023-09-18T12:56:31;11.30;;;3.35;;
21729;SDS011;11027;51.030;13.812;2023-09-18T12:58:57;7.88;;;3.20;;
21729;SDS011;11027;51.030;13.812;2023-09-18T13:01:23;6.45;;;3.38;;
21729;SDS011;11027;51.030;13.812;2023-09-18T13:03:49;6.25;;;2.90;;
21729;SDS011;11027;51.030;13.812;2023-09-18T13:06:17;7.30;;;3.40;;
21729;SDS011;11027;51.030;13.812;2023-09-18T13:08:43;5.32;;;3.30;;
21729;SDS011;11027;51.030;13.812;2023-09-18T13:11:09;7.15;;;3.38;;
21729;SDS011;11027;51.030;13.812;2023-09-18T13:13:37;9.23;;;3.60;;
21729;SDS011;11027;51.030;13.812;2023-09-18T13:16:06;8.80;;;3.33;;
21729;SDS011;11027;51.030;13.812;2023-09-18T13:18:34;5.30;;;3.15;;
21729;SDS011;11027;51.030;13.812;2023-09-18T13:20:59;8.55;;;3.90;;
21729;SDS011;11027;51.030;13.812;2023-09-18T13:23:28;5.00;;;2.90;;
21729;SDS011;11027;51.030;13.812;2023-09-18T13:25:58;5.35;;;2.80;;
21729;SDS011;11027;51.030;13.812;2023-09-18T13:28:24;4.78;;;2.95;;
21729;SDS011;11027;51.030;13.812;2023-09-18T13:30:49;4.70;;;2.92;;
21729;SDS011;11027;51.030;13.812;2023-09-18T13:33:16;8.43;;;3.15;;
21729;SDS011;11027;51.030;13.812;2023-09-18T13:35:42;7.75;;;3.47;;
21729;SDS011;11027;51.030;13.812;2023-09-18T13:38:09;4.35;;;2.92;;
21729;SDS011;11027;51.030;13.812;2023-09-18T13:40:36;4.78;;;3.20;;
21729;SDS011;11027;51.030;13.812;2023-09-18T13:43:03;4.65;;;3.58;;
21729;SDS011;11027;51.030;13.812;2023-09-18T13:45:30;7.65;;;2.95;;
21729;SDS011;11027;51.030;13.812;2023-09-18T13:47:55;5.13;;;3.20;;
21729;SDS011;11027;51.030;13.812;2023-09-18T13:50:21;4.55;;;3.35;;
21729;SDS011;11027;51.030;13.812;2023-09-18T13:52:46;10.65;;;3.20;;
21729;SDS011;11027;51.030;13.812;2023-09-18T13:55:11;6.37;;;3.23;;
21729;SDS011;11027;51.030;13.812;2023-09-18T13:57:37;5.72;;;3.10;;
21729;SDS011;11027;51.030;13.812;2023-09-18T14:00:03;7.90;;;3.50;;
21729;SDS011;11027;51.030;13.812;2023-09-18T14:02:35;6.18;;;3.58;;
21729;SDS011;11027;51.030;13.812;2023-09-18T14:05:01;4.57;;;3.13;;
21729;SDS011;11027;51.030;13.812;2023-09-18T14:07:26;7.90;;;3.28;;
21729;SDS011;11027;51.030;13.812;2023-09-18T14:09:52;5.15;;;3.40;;
21729;SDS011;11027;51.030;13.812;2023-09-18T14:12:18;9.45;;;3.22;;
21729;SDS011;11027;51.030;13.812;2023-09-18T14:14:43;5.82;;;3.40;;
21729;SDS011;11027;51.030;13.812;2023-09-18T14:17:09;6.50;;;3.35;;
21729;SDS011;11027;51.030;13.812;2023-09-18T14:19:35;10.02;;;2.97;;
21729;SDS011;11027;51.030;13.812;2023-09-18T14:22:03;5.03;;;3.28;;
21729;SDS011;11027;51.030;13.812;2023-09-18T14:24:30;10.55;;;3.30;;
21729;SDS011;11027;51.030;13.812;2023-09-18T14:26:56;4.63;;;3.03;;
21729;SDS011;11027;51.030;13.812;2023-09-18T14:29:21;6.90;;;3.58;;
21729;SDS011;11027;51.030;13.812;2023-09-18T14:31:46;3.42;;;2.80;;
21729;SDS011;11027;51.030;13.812;2023-09-18T14:34:12;9.23;;;3.15;;
21729;SDS011;11027;51.030;13.812;2023-09-18T14:36:37;4.47;;;3.40;;
21729;SDS011;11027;51.030;13.812;2023-09-18T14:39:04;13.48;;;3.70;;
21729;SDS011;11027;51.030;13.812;2023-09-18T14:41:33;7.53;;;3.17;;
21729;SDS011;11027;51.030;13.812;2023-09-18T14:44:00;8.07;;;3.17;;
21729;SDS011;11027;51.030;13.812;2023-09-18T14:46:25;4.28;;;3.00;;
21729;SDS011;11027;51.030;13.812;2023-09-18T14:48:50;10.05;;;3.47;;